Forest Heights, Maryland
Current Conditions -  °F | °C
As of 12:52 AM on Monday 22 Dec 2014 (Local Time) from KDCA Reporting Station
Broken Clouds Broken Clouds  
Wind Chill: 34°   Ceiling: 25000
Heat Index: 34°   Visibility: 8mi
Dew Point: 25°   Wind: 3mph
Humidity: 70%   Direction: 60°ENE
Pressure: 30.35"   Gusts: NA
Location:  38.8052°N, 76.9958°W
Report Text: KDCA 220552Z 06003KT 8SM BKN250 01/M04 A3035 RMK AO2 SLP275 T00111039 10044 20011 55001
Loading
Personal Weather Stations






























Interactive Weather Map New forecast layout! Learn more

10-Day Weather Forecast

Advertisements
Track Severe Weather on mobile